createdAt,value
2018-11-25T00:00:04.433Z,4.00
2018-11-25T00:02:31.932Z,4.00
2018-11-25T00:04:59.457Z,4.00
2018-11-25T00:07:30.198Z,4.00
2018-11-25T00:09:54.504Z,4.00
2018-11-25T00:12:22.082Z,4.10
2018-11-25T00:14:49.596Z,4.10
2018-11-25T00:17:17.139Z,4.10
2018-11-25T00:19:44.653Z,4.10
2018-11-25T00:22:12.175Z,4.10
2018-11-25T00:24:39.653Z,4.10
2018-11-25T00:27:07.151Z,4.10
2018-11-25T00:29:34.674Z,4.10
2018-11-25T00:32:02.214Z,4.10
2018-11-25T00:34:29.717Z,4.00
2018-11-25T00:36:57.236Z,4.10
2018-11-25T00:39:24.755Z,4.00
2018-11-25T00:41:52.256Z,4.00
2018-11-25T00:44:19.763Z,4.10
2018-11-25T00:46:47.280Z,4.00
2018-11-25T00:49:14.817Z,4.00
2018-11-25T00:51:42.378Z,4.00
2018-11-25T00:54:09.919Z,4.00
2018-11-25T00:56:37.449Z,4.00
2018-11-25T00:59:05.053Z,4.10
2018-11-25T01:01:32.553Z,4.10
2018-11-25T01:04:00.126Z,4.10
2018-11-25T01:06:27.766Z,4.10
2018-11-25T01:08:55.306Z,4.10
2018-11-25T01:11:22.861Z,4.10
2018-11-25T01:13:50.417Z,4.10
2018-11-25T01:16:17.928Z,4.10
2018-11-25T01:18:45.448Z,4.00
2018-11-25T01:21:13.001Z,4.00
2018-11-25T01:23:40.519Z,3.90
2018-11-25T01:26:08.036Z,3.90
2018-11-25T01:28:35.549Z,3.80
2018-11-25T01:31:03.143Z,3.70
2018-11-25T01:33:30.672Z,3.70
2018-11-25T01:35:58.199Z,3.60
2018-11-25T01:38:25.778Z,3.60
2018-11-25T01:40:53.291Z,3.50
2018-11-25T01:43:20.880Z,3.40
2018-11-25T01:45:48.350Z,3.30
2018-11-25T01:48:16.871Z,3.20
2018-11-25T01:50:44.388Z,3.10
2018-11-25T01:53:11.935Z,3.10
2018-11-25T01:55:39.445Z,3.00
2018-11-25T01:58:06.970Z,2.90
2018-11-25T02:00:34.609Z,2.80
2018-11-25T02:03:02.185Z,2.70
2018-11-25T02:05:29.696Z,2.60
2018-11-25T02:07:57.221Z,2.50
2018-11-25T02:10:24.781Z,2.40
2018-11-25T02:12:52.372Z,2.40
2018-11-25T02:15:19.903Z,2.40
2018-11-25T02:17:47.404Z,2.40
2018-11-25T02:20:16.427Z,2.30
2018-11-25T02:22:43.960Z,2.20
2018-11-25T02:25:11.651Z,2.20
2018-11-25T02:27:39.275Z,2.10
2018-11-25T02:30:09.306Z,2.00
2018-11-25T02:32:36.904Z,2.00
2018-11-25T02:35:05.796Z,2.00
2018-11-25T02:37:33.385Z,1.90
2018-11-25T02:40:00.935Z,1.90
2018-11-25T02:42:28.514Z,1.90
2018-11-25T02:44:56.084Z,1.90
2018-11-25T02:47:23.678Z,1.90
2018-11-25T02:49:51.282Z,1.80
2018-11-25T02:52:18.921Z,1.90
2018-11-25T02:54:46.482Z,1.90
2018-11-25T02:57:18.605Z,1.90
2018-11-25T02:59:46.158Z,1.90
2018-11-25T03:02:13.785Z,1.80
2018-11-25T03:04:41.443Z,1.70
2018-11-25T03:07:09.046Z,1.70
2018-11-25T03:09:36.626Z,1.60
2018-11-25T03:12:04.222Z,1.50
2018-11-25T03:14:31.786Z,1.40
2018-11-25T03:16:59.326Z,1.30
2018-11-25T03:19:26.961Z,1.30
2018-11-25T03:21:54.630Z,1.20
2018-11-25T03:24:22.427Z,1.10
2018-11-25T03:26:50.013Z,1.00
2018-11-25T03:29:18.722Z,0.90
2018-11-25T03:31:46.291Z,0.80
2018-11-25T03:34:13.893Z,0.80
2018-11-25T03:36:41.506Z,0.70
2018-11-25T03:39:11.220Z,0.70
2018-11-25T03:41:39.401Z,0.70
2018-11-25T03:44:07.039Z,0.60
2018-11-25T03:46:34.662Z,0.60
2018-11-25T03:49:02.306Z,0.50
2018-11-25T03:51:29.878Z,0.40
2018-11-25T03:53:57.475Z,0.40
2018-11-25T03:56:25.048Z,0.40
2018-11-25T03:58:52.669Z,0.30
2018-11-25T04:01:20.258Z,0.30
2018-11-25T04:03:48.021Z,0.30
2018-11-25T04:06:15.851Z,0.20
2018-11-25T04:08:43.437Z,0.20
2018-11-25T04:11:11.055Z,0.10
2018-11-25T04:13:38.593Z,0.00
2018-11-25T04:16:06.246Z,0.00
2018-11-25T04:18:34.932Z,-0.10
2018-11-25T04:21:05.231Z,-0.10
2018-11-25T04:23:32.967Z,-0.20
2018-11-25T04:26:01.630Z,-0.20
2018-11-25T04:28:29.222Z,-0.20
2018-11-25T04:30:56.859Z,-0.20
2018-11-25T04:33:25.175Z,-0.20
2018-11-25T04:35:52.758Z,-0.20
2018-11-25T04:38:22.372Z,-0.20
2018-11-25T04:40:54.878Z,-0.20
2018-11-25T04:43:22.542Z,-0.20
2018-11-25T04:45:50.246Z,-0.20
2018-11-25T04:48:18.845Z,-0.20
2018-11-25T04:50:46.452Z,-0.20
2018-11-25T04:53:14.027Z,-0.20
2018-11-25T04:55:42.839Z,-0.20
2018-11-25T04:58:12.515Z,-0.30
2018-11-25T05:00:40.162Z,-0.30
2018-11-25T05:03:08.026Z,-0.30
2018-11-25T05:05:35.633Z,-0.30
2018-11-25T05:08:03.273Z,-0.20
2018-11-25T05:10:30.858Z,-0.20
2018-11-25T05:12:58.454Z,-0.30
2018-11-25T05:15:26.067Z,-0.30
2018-11-25T05:17:53.687Z,-0.30
2018-11-25T05:20:21.241Z,-0.30
2018-11-25T05:22:48.902Z,-0.30
2018-11-25T05:25:17.469Z,-0.30
2018-11-25T05:27:45.046Z,-0.30
2018-11-25T05:30:14.525Z,-0.30
2018-11-25T05:32:45.685Z,-0.20
2018-11-25T05:35:16.413Z,-0.20
2018-11-25T05:37:45.035Z,-0.30
2018-11-25T05:40:13.793Z,-0.20
2018-11-25T05:42:41.581Z,-0.30
2018-11-25T05:45:11.617Z,-0.30
2018-11-25T05:47:39.294Z,-0.30
2018-11-25T05:50:08.825Z,-0.30
2018-11-25T05:52:36.493Z,-0.40
2018-11-25T05:55:05.454Z,-0.40
2018-11-25T05:57:33.048Z,-0.40
2018-11-25T06:00:00.666Z,-0.40
2018-11-25T06:02:28.254Z,-0.40
2018-11-25T06:04:55.842Z,-0.40
2018-11-25T06:07:23.453Z,-0.50
2018-11-25T06:09:51.043Z,-0.50
2018-11-25T06:12:18.676Z,-0.50
2018-11-25T06:14:46.294Z,-0.50
2018-11-25T06:17:13.844Z,-0.50
2018-11-25T06:19:41.507Z,-0.50
2018-11-25T06:22:09.194Z,-0.50
2018-11-25T06:24:36.813Z,-0.50
2018-11-25T06:27:04.474Z,-0.50
2018-11-25T06:29:32.060Z,-0.60
2018-11-25T06:31:59.649Z,-0.60
2018-11-25T06:34:32.075Z,-0.60
2018-11-25T06:36:59.702Z,-0.70
2018-11-25T06:39:31.051Z,-0.70
2018-11-25T06:41:59.091Z,-0.70
2018-11-25T06:44:26.736Z,-0.80
2018-11-25T06:46:59.175Z,-0.90
2018-11-25T06:49:28.858Z,-0.90
2018-11-25T06:51:58.615Z,-1.00
2018-11-25T06:54:26.146Z,-1.00
2018-11-25T06:56:53.749Z,-1.10
2018-11-25T06:59:21.420Z,-1.10
2018-11-25T07:01:49.323Z,-1.10
2018-11-25T07:04:17.206Z,-1.10
2018-11-25T07:06:44.822Z,-1.10
2018-11-25T07:09:12.432Z,-1.00
2018-11-25T07:11:40.046Z,-1.00
2018-11-25T07:14:07.666Z,-1.00
2018-11-25T07:16:35.248Z,-1.00
2018-11-25T07:19:02.870Z,-1.00
2018-11-25T07:21:30.459Z,-1.00
2018-11-25T07:23:58.032Z,-1.00
2018-11-25T07:26:26.561Z,-1.00
2018-11-25T07:28:56.217Z,-0.90
2018-11-25T07:31:24.207Z,-0.90
2018-11-25T07:33:51.865Z,-0.90
2018-11-25T07:36:19.565Z,-0.90
2018-11-25T07:38:47.260Z,-0.90
2018-11-25T07:41:14.857Z,-0.90
2018-11-25T07:43:42.508Z,-0.90
2018-11-25T07:46:10.086Z,-0.80
2018-11-25T07:48:37.679Z,-0.80
2018-11-25T07:51:05.500Z,-0.80
2018-11-25T07:53:33.082Z,-0.80
2018-11-25T07:56:00.666Z,-0.70
2018-11-25T07:58:29.281Z,-0.70
2018-11-25T08:01:00.733Z,-0.70
2018-11-25T08:03:29.162Z,-0.60
2018-11-25T08:05:57.653Z,-0.60
2018-11-25T08:08:25.486Z,-0.50
2018-11-25T08:10:53.990Z,-0.50
2018-11-25T08:13:22.482Z,-0.40
2018-11-25T08:15:50.058Z,-0.40
2018-11-25T08:18:17.680Z,-0.30
2018-11-25T08:20:45.290Z,-0.30
2018-11-25T08:23:13.637Z,-0.20
2018-11-25T08:25:40.616Z,-0.10
2018-11-25T08:28:08.242Z,0.00
2018-11-25T08:30:35.959Z,0.10
2018-11-25T08:33:03.677Z,0.20
2018-11-25T08:35:31.339Z,0.30
2018-11-25T08:37:58.938Z,0.40
2018-11-25T08:40:26.566Z,0.40
2018-11-25T08:42:54.162Z,0.50
2018-11-25T08:45:21.742Z,0.60
2018-11-25T08:47:49.315Z,0.60
2018-11-25T08:50:18.119Z,0.70
2018-11-25T08:52:47.533Z,0.70
2018-11-25T08:55:15.946Z,0.80
2018-11-25T08:57:43.645Z,0.90
2018-11-25T09:00:16.232Z,0.90
2018-11-25T09:02:43.937Z,1.00
2018-11-25T09:05:12.426Z,1.10
2018-11-25T09:07:39.993Z,1.20
2018-11-25T09:10:16.177Z,1.30
2018-11-25T09:12:44.385Z,1.50
2018-11-25T09:15:13.198Z,1.60
2018-11-25T09:17:41.791Z,1.80
2018-11-25T09:20:11.764Z,2.10
2018-11-25T09:22:39.449Z,2.30
2018-11-25T09:25:09.846Z,2.70
2018-11-25T09:27:37.498Z,3.30
2018-11-25T09:30:10.296Z,4.00
2018-11-25T09:32:37.886Z,4.50
2018-11-25T09:35:06.278Z,5.20
2018-11-25T09:37:33.885Z,5.70
2018-11-25T09:40:01.576Z,6.20
2018-11-25T09:42:29.210Z,6.50
2018-11-25T09:44:56.957Z,6.70
2018-11-25T09:47:24.622Z,6.90
2018-11-25T09:49:52.243Z,7.30
2018-11-25T09:52:19.859Z,7.60
2018-11-25T09:54:47.550Z,8.00
2018-11-25T09:57:15.254Z,8.50
2018-11-25T09:59:42.919Z,9.00
2018-11-25T10:02:10.511Z,9.30
2018-11-25T10:04:38.290Z,9.50
2018-11-25T10:07:06.115Z,9.80
2018-11-25T10:09:33.843Z,10.20
2018-11-25T10:12:01.515Z,10.40
2018-11-25T10:14:29.093Z,10.60
2018-11-25T10:16:56.726Z,10.80
2018-11-25T10:19:24.349Z,11.10
2018-11-25T10:21:51.984Z,11.30
2018-11-25T10:24:19.617Z,11.20
2018-11-25T10:26:47.228Z,11.30
2018-11-25T10:29:14.864Z,11.30
2018-11-25T10:31:42.564Z,11.40
2018-11-25T10:34:11.235Z,11.90
2018-11-25T10:36:38.880Z,12.50
2018-11-25T10:39:07.814Z,13.10
2018-11-25T10:41:35.661Z,13.60
2018-11-25T10:44:03.653Z,13.90
2018-11-25T10:46:31.442Z,14.10
2018-11-25T10:48:59.216Z,14.00
2018-11-25T10:51:26.902Z,13.90
2018-11-25T10:53:54.567Z,13.70
2018-11-25T10:56:22.422Z,13.60
2018-11-25T10:58:50.215Z,13.20
2018-11-25T11:01:23.685Z,12.90
2018-11-25T11:03:54.523Z,12.40
2018-11-25T11:06:28.373Z,11.80
2018-11-25T11:08:56.450Z,11.30
2018-11-25T11:11:24.174Z,10.80
2018-11-25T11:13:51.866Z,10.20
2018-11-25T11:16:19.481Z,9.80
2018-11-25T11:18:47.030Z,9.70
2018-11-25T11:21:14.646Z,9.50
2018-11-25T11:23:42.311Z,9.20
2018-11-25T11:26:19.581Z,8.80
2018-11-25T11:28:47.213Z,8.30
2018-11-25T11:31:14.805Z,7.80
2018-11-25T11:33:42.466Z,7.50
2018-11-25T11:36:10.089Z,7.30
2018-11-25T11:38:37.676Z,7.10
2018-11-25T11:41:05.324Z,7.10
2018-11-25T11:43:32.906Z,7.00
2018-11-25T11:46:00.477Z,6.90
2018-11-25T11:48:28.084Z,6.90
2018-11-25T11:50:56.962Z,6.90
2018-11-25T11:53:24.576Z,6.80
2018-11-25T11:55:52.616Z,6.80
2018-11-25T11:58:20.194Z,6.70
2018-11-25T12:00:47.818Z,6.40
2018-11-25T12:03:15.385Z,6.10
2018-11-25T12:05:43.023Z,5.90
2018-11-25T12:08:10.613Z,5.70
2018-11-25T12:10:38.256Z,5.40
2018-11-25T12:13:06.043Z,5.30
2018-11-25T12:15:33.644Z,5.20
2018-11-25T12:18:01.238Z,5.10
2018-11-25T12:20:30.020Z,5.10
2018-11-25T12:22:58.021Z,4.90
2018-11-25T12:25:25.658Z,4.60
2018-11-25T12:27:53.233Z,4.40
2018-11-25T12:30:20.825Z,4.30
2018-11-25T12:32:49.498Z,4.10
2018-11-25T12:35:17.410Z,4.10
2018-11-25T12:37:45.048Z,4.00
2018-11-25T12:40:15.780Z,4.00
2018-11-25T12:42:44.873Z,4.00
2018-11-25T12:45:13.686Z,4.00
2018-11-25T12:47:41.442Z,3.80
2018-11-25T12:50:10.416Z,3.90
2018-11-25T12:52:38.048Z,3.90
2018-11-25T12:55:08.610Z,3.70
2018-11-25T12:57:36.285Z,3.70
2018-11-25T13:00:08.322Z,3.70
2018-11-25T13:02:35.985Z,3.70
2018-11-25T13:05:04.562Z,3.60
2018-11-25T13:07:32.181Z,3.60
2018-11-25T13:09:59.730Z,3.50
2018-11-25T13:12:27.332Z,3.60
2018-11-25T13:14:54.908Z,3.60
2018-11-25T13:17:22.570Z,3.60
2018-11-25T13:19:50.265Z,3.60
2018-11-25T13:22:17.873Z,3.60
2018-11-25T13:24:45.451Z,3.60
2018-11-25T13:27:13.909Z,3.60
2018-11-25T13:29:41.501Z,3.70
2018-11-25T13:32:09.114Z,3.80
2018-11-25T13:34:36.690Z,3.80
2018-11-25T13:37:04.804Z,3.80
2018-11-25T13:39:32.413Z,3.80
2018-11-25T13:42:00.042Z,3.80
2018-11-25T13:44:27.614Z,3.80
2018-11-25T13:46:55.201Z,3.90
2018-11-25T13:49:22.786Z,3.90
2018-11-25T13:51:50.358Z,3.90
2018-11-25T13:54:17.926Z,3.90
2018-11-25T13:56:45.546Z,3.90
2018-11-25T13:59:13.121Z,3.90
2018-11-25T14:01:40.693Z,4.00
2018-11-25T14:04:08.290Z,4.00
2018-11-25T14:06:36.174Z,4.00
2018-11-25T14:09:08.959Z,4.00
2018-11-25T14:11:36.557Z,4.00
2018-11-25T14:14:04.317Z,4.00
2018-11-25T14:16:31.987Z,4.10
2018-11-25T14:18:59.661Z,4.10
2018-11-25T14:21:27.250Z,4.00
2018-11-25T14:23:54.926Z,4.00
2018-11-25T14:26:24.702Z,4.10
2018-11-25T14:28:52.620Z,4.00
2018-11-25T14:31:20.241Z,4.00
2018-11-25T14:33:47.829Z,4.00
2018-11-25T14:36:15.426Z,4.00
2018-11-25T14:38:43.021Z,4.00
2018-11-25T14:41:10.609Z,3.90
2018-11-25T14:43:38.306Z,3.80
2018-11-25T14:46:05.909Z,3.80
2018-11-25T14:48:33.538Z,3.80
2018-11-25T14:51:01.173Z,3.80
2018-11-25T14:53:28.769Z,3.80
2018-11-25T14:55:56.385Z,3.70
2018-11-25T14:58:24.126Z,3.70
2018-11-25T15:00:51.723Z,3.70
2018-11-25T15:03:19.323Z,3.70
2018-11-25T15:05:47.820Z,3.60
2018-11-25T15:08:18.014Z,3.60
2018-11-25T15:10:45.686Z,3.60
2018-11-25T15:13:13.280Z,3.60
2018-11-25T15:15:40.927Z,3.50
2018-11-25T15:18:09.150Z,3.50
2018-11-25T15:20:36.783Z,3.50
2018-11-25T15:23:07.307Z,3.50
2018-11-25T15:25:36.510Z,3.50
2018-11-25T15:28:04.518Z,3.50
2018-11-25T15:30:32.140Z,3.40
2018-11-25T15:32:59.710Z,3.40
2018-11-25T15:35:27.415Z,3.40
2018-11-25T15:37:55.069Z,3.50
2018-11-25T15:40:30.693Z,3.40
2018-11-25T15:42:58.359Z,3.40
2018-11-25T15:45:25.953Z,3.50
2018-11-25T15:47:59.881Z,3.40
2018-11-25T15:50:28.078Z,3.40
2018-11-25T15:52:55.784Z,3.40
2018-11-25T15:55:23.562Z,3.40
2018-11-25T15:57:51.745Z,3.40
2018-11-25T16:00:19.914Z,3.40
2018-11-25T16:02:47.514Z,3.40
2018-11-25T16:05:21.076Z,3.40
2018-11-25T16:07:48.691Z,3.40
2018-11-25T16:10:16.297Z,3.40
2018-11-25T16:12:45.107Z,3.40
2018-11-25T16:15:15.902Z,3.40
2018-11-25T16:17:43.520Z,3.30
2018-11-25T16:20:19.068Z,3.30
2018-11-25T16:22:47.878Z,3.30
2018-11-25T16:25:25.328Z,3.30
2018-11-25T16:27:58.383Z,3.30
2018-11-25T16:30:25.976Z,3.30
2018-11-25T16:32:53.582Z,3.30
2018-11-25T16:35:21.169Z,3.30
2018-11-25T16:37:48.796Z,3.30
2018-11-25T16:40:16.609Z,3.30
2018-11-25T16:42:44.217Z,3.30
2018-11-25T16:45:15.131Z,3.20
2018-11-25T16:47:42.887Z,3.30
2018-11-25T16:50:12.397Z,3.20
2018-11-25T16:52:40.024Z,3.20
2018-11-25T16:55:08.848Z,3.30
2018-11-25T16:57:36.514Z,3.30
2018-11-25T17:00:08.106Z,3.30
2018-11-25T17:02:35.701Z,3.30
2018-11-25T17:05:03.502Z,3.30
2018-11-25T17:07:31.069Z,3.30
2018-11-25T17:09:58.698Z,3.30
2018-11-25T17:12:26.306Z,3.30
2018-11-25T17:14:53.902Z,3.30
2018-11-25T17:17:21.555Z,3.30
2018-11-25T17:19:49.286Z,3.30
2018-11-25T17:22:16.885Z,3.30
2018-11-25T17:24:44.514Z,3.30
2018-11-25T17:27:12.083Z,3.30
2018-11-25T17:29:39.752Z,3.30
2018-11-25T17:32:07.313Z,3.40
2018-11-25T17:34:34.944Z,3.30
2018-11-25T17:37:02.559Z,3.40
2018-11-25T17:39:30.195Z,3.30
2018-11-25T17:41:57.791Z,3.30
2018-11-25T17:44:25.469Z,3.40
2018-11-25T17:46:53.077Z,3.40
2018-11-25T17:49:20.726Z,3.40
2018-11-25T17:51:48.386Z,3.40
2018-11-25T17:54:15.954Z,3.40
2018-11-25T17:56:43.586Z,3.40
2018-11-25T17:59:11.143Z,3.40
2018-11-25T18:01:39.761Z,3.40
2018-11-25T18:04:07.364Z,3.30
2018-11-25T18:06:34.979Z,3.40
2018-11-25T18:09:08.852Z,3.40
2018-11-25T18:11:36.477Z,3.40
2018-11-25T18:14:04.862Z,3.40
2018-11-25T18:16:33.443Z,3.40
2018-11-25T18:19:13.070Z,3.40
2018-11-25T18:21:40.664Z,3.40
2018-11-25T18:24:08.240Z,3.40
2018-11-25T18:26:35.840Z,3.30
2018-11-25T18:29:03.463Z,3.30
2018-11-25T18:31:31.062Z,3.30
2018-11-25T18:33:58.666Z,3.40
2018-11-25T18:36:26.271Z,3.40
2018-11-25T18:38:54.754Z,3.40
2018-11-25T18:41:22.327Z,3.40
2018-11-25T18:43:49.919Z,3.30
2018-11-25T18:46:17.509Z,3.40
2018-11-25T18:48:46.369Z,3.40
2018-11-25T18:51:14.007Z,3.40
2018-11-25T18:53:41.622Z,3.40
2018-11-25T18:56:09.235Z,3.40
2018-11-25T18:58:36.859Z,3.30
2018-11-25T19:01:41.126Z,3.30
2018-11-25T19:04:08.740Z,3.30
2018-11-25T19:06:36.301Z,3.30
2018-11-25T19:09:07.019Z,3.30
2018-11-25T19:11:34.613Z,3.30
2018-11-25T19:14:02.305Z,3.20
2018-11-25T19:16:29.997Z,3.20
2018-11-25T19:18:57.613Z,3.20
2018-11-25T19:21:25.281Z,3.20
2018-11-25T19:23:53.001Z,3.20
2018-11-25T19:26:21.181Z,3.20
2018-11-25T19:28:48.831Z,3.20
2018-11-25T19:31:16.926Z,3.20
2018-11-25T19:33:44.957Z,3.10
2018-11-25T19:36:12.704Z,3.10
2018-11-25T19:38:40.723Z,3.20
2018-11-25T19:41:08.964Z,3.20
2018-11-25T19:43:36.544Z,3.10
2018-11-25T19:46:04.375Z,3.10
2018-11-25T19:48:31.966Z,3.10
2018-11-25T19:51:00.511Z,3.10
2018-11-25T19:53:28.129Z,3.10
2018-11-25T19:55:55.776Z,3.10
2018-11-25T19:58:23.472Z,3.10
2018-11-25T20:00:51.075Z,3.00
2018-11-25T20:03:18.753Z,3.00
2018-11-25T20:05:46.400Z,3.00
2018-11-25T20:08:14.106Z,3.00
2018-11-25T20:10:41.784Z,3.00
2018-11-25T20:13:10.091Z,3.00
2018-11-25T20:15:37.730Z,3.00
2018-11-25T20:18:06.410Z,2.90
2018-11-25T20:20:33.965Z,2.90
2018-11-25T20:23:01.565Z,2.90
2018-11-25T20:25:29.241Z,2.90
2018-11-25T20:27:57.296Z,2.90
2018-11-25T20:30:29.401Z,2.90
2018-11-25T20:33:02.813Z,2.90
2018-11-25T20:35:30.445Z,2.90
2018-11-25T20:38:03.729Z,2.90
2018-11-25T20:40:32.448Z,2.90
2018-11-25T20:43:00.039Z,2.90
2018-11-25T20:45:39.000Z,2.90
2018-11-25T20:48:02.289Z,2.90
2018-11-25T20:50:29.897Z,2.90
2018-11-25T20:53:03.093Z,2.90
2018-11-25T20:55:30.710Z,2.90
2018-11-25T20:57:58.317Z,2.90
2018-11-25T21:00:27.105Z,2.90
2018-11-25T21:02:54.730Z,2.80
2018-11-25T21:05:23.813Z,2.90
2018-11-25T21:07:49.997Z,2.90
2018-11-25T21:10:18.591Z,2.90
2018-11-25T21:12:48.213Z,2.90
2018-11-25T21:15:15.832Z,2.90
2018-11-25T21:17:43.513Z,2.90
2018-11-25T21:20:16.090Z,2.90
2018-11-25T21:22:43.671Z,2.90
2018-11-25T21:25:14.106Z,2.90
2018-11-25T21:27:41.862Z,2.90
2018-11-25T21:30:15.388Z,2.90
2018-11-25T21:32:43.401Z,2.90
2018-11-25T21:35:11.726Z,2.90
2018-11-25T21:37:39.328Z,2.90
2018-11-25T21:40:14.888Z,2.90
2018-11-25T21:42:42.554Z,2.90
2018-11-25T21:45:13.065Z,2.90
2018-11-25T21:47:40.804Z,2.90
2018-11-25T21:50:11.472Z,2.90
2018-11-25T21:52:39.086Z,2.90
2018-11-25T21:55:09.258Z,3.00
2018-11-25T21:57:36.876Z,3.00
2018-11-25T22:00:07.600Z,2.90
2018-11-25T22:02:35.310Z,2.90
2018-11-25T22:05:02.955Z,2.90
2018-11-25T22:07:30.616Z,2.90
2018-11-25T22:09:58.346Z,2.90
2018-11-25T22:12:26.007Z,2.90
2018-11-25T22:14:53.679Z,2.90
2018-11-25T22:17:21.422Z,2.90
2018-11-25T22:19:49.015Z,2.90
2018-11-25T22:22:16.929Z,2.90
2018-11-25T22:24:44.550Z,2.90
2018-11-25T22:27:12.121Z,2.90
2018-11-25T22:29:39.722Z,2.90
2018-11-25T22:32:07.282Z,2.90
2018-11-25T22:34:34.891Z,2.80
2018-11-25T22:37:02.585Z,2.80
2018-11-25T22:39:30.229Z,2.80
2018-11-25T22:41:57.827Z,2.80
2018-11-25T22:44:25.517Z,2.80
2018-11-25T22:46:53.135Z,2.80
2018-11-25T22:49:20.741Z,2.80
2018-11-25T22:51:48.359Z,2.80
2018-11-25T22:54:15.946Z,2.80
2018-11-25T22:56:43.629Z,2.80
2018-11-25T22:59:11.219Z,2.80
2018-11-25T23:01:38.872Z,2.80
2018-11-25T23:05:21.686Z,2.80
2018-11-25T23:07:49.323Z,2.80
2018-11-25T23:10:16.899Z,2.80
2018-11-25T23:12:44.526Z,2.80
2018-11-25T23:15:12.207Z,2.70
2018-11-25T23:17:39.826Z,2.70
2018-11-25T23:20:07.475Z,2.70
2018-11-25T23:22:35.410Z,2.70
2018-11-25T23:25:03.250Z,2.60
2018-11-25T23:27:30.865Z,2.60
2018-11-25T23:29:58.486Z,2.60
2018-11-25T23:32:26.150Z,2.60
2018-11-25T23:34:53.715Z,2.60
2018-11-25T23:37:21.381Z,2.60
2018-11-25T23:39:49.185Z,2.60
2018-11-25T23:42:16.781Z,2.60
2018-11-25T23:44:44.386Z,2.60
2018-11-25T23:47:12.006Z,2.60
2018-11-25T23:49:39.741Z,2.60
2018-11-25T23:52:08.380Z,2.60
2018-11-25T23:54:35.995Z,2.60
2018-11-25T23:57:03.724Z,2.60
2018-11-25T23:59:31.387Z,2.70
